TimeCDT,TemperatureF,Dew PointF,Humidity,Sea Level PressureIn,VisibilityMPH,Wind Direction,Wind SpeedMPH,Gust SpeedMPH,PrecipitationIn,Events,Conditions,WindDirDegrees,DateUTC
12:53 AM,54.0,52.0,93,29.91,10.0,Calm,Calm,-,N/A,,Clear,0,2013-08-02 05:53:00
1:53 AM,50.0,48.9,96,29.91,10.0,NW,3.5,-,N/A,,Clear,310,2013-08-02 06:53:00
2:53 AM,53.1,51.1,93,29.91,10.0,Calm,Calm,-,N/A,,Clear,0,2013-08-02 07:53:00
3:53 AM,48.9,46.9,93,29.92,10.0,Calm,Calm,-,N/A,,Clear,0,2013-08-02 08:53:00
4:53 AM,50.0,48.0,93,29.94,10.0,Calm,Calm,-,N/A,,Clear,0,2013-08-02 09:53:00
5:53 AM,46.9,46.0,97,29.94,10.0,Calm,Calm,-,N/A,,Clear,0,2013-08-02 10:53:00
6:53 AM,52.0,51.1,97,29.95,10.0,NW,3.5,-,N/A,,Clear,320,2013-08-02 11:53:00
7:53 AM,57.9,54.0,87,29.96,10.0,NW,5.8,-,N/A,,Clear,320,2013-08-02 12:53:00
8:53 AM,62.1,53.1,72,29.98,10.0,NNW,4.6,-,N/A,,Clear,330,2013-08-02 13:53:00
9:53 AM,64.9,50.0,58,29.99,10.0,North,10.4,-,N/A,,Clear,360,2013-08-02 14:53:00
10:53 AM,66.0,51.1,59,29.99,10.0,North,8.1,-,N/A,,Clear,360,2013-08-02 15:53:00
11:53 AM,69.1,48.0,47,29.99,10.0,North,10.4,-,N/A,,Clear,360,2013-08-02 16:53:00
12:53 PM,72.0,46.0,40,30.00,10.0,NNW,11.5,-,N/A,,Partly Cloudy,340,2013-08-02 17:53:00
1:53 PM,71.1,43.0,36,30.00,10.0,North,11.5,17.3,N/A,,Mostly Cloudy,10,2013-08-02 18:53:00
2:53 PM,72.0,45.0,38,30.00,10.0,North,10.4,-,N/A,,Scattered Clouds,360,2013-08-02 19:53:00
3:53 PM,72.0,45.0,38,30.01,10.0,NNW,13.8,19.6,N/A,,Partly Cloudy,340,2013-08-02 20:53:00
4:53 PM,73.0,45.0,37,30.00,10.0,NW,12.7,-,N/A,,Partly Cloudy,320,2013-08-02 21:53:00
5:53 PM,73.0,45.0,37,30.01,10.0,NNW,8.1,-,N/A,,Scattered Clouds,330,2013-08-02 22:53:00
6:53 PM,72.0,46.9,41,30.02,10.0,NW,12.7,-,N/A,,Clear,310,2013-08-02 23:53:00
7:53 PM,69.1,50.0,51,30.02,10.0,NW,5.8,-,N/A,,Clear,310,2013-08-03 00:53:00
8:53 PM,63.0,50.0,63,30.04,10.0,NW,4.6,-,N/A,,Clear,310,2013-08-03 01:53:00
9:53 PM,59.0,50.0,72,30.06,10.0,Calm,Calm,-,N/A,,Clear,0,2013-08-03 02:53:00
10:53 PM,54.0,48.9,83,30.09,10.0,Calm,Calm,-,N/A,,Clear,0,2013-08-03 03:53:00
11:53 PM,51.1,48.0,89,30.10,10.0,WNW,3.5,-,N/A,,Clear,290,2013-08-03 04:53:00